Main page
METAR-TAF:

METAR-TAF

Airports :

MoD Boscombe Down

Boscombe Down, England

latitude: 51-10N, longitude: 001-45W, elevation: 124 m

Current weather observation

The report was made 58 minutes ago, at 21:50 UTC
Wind 9 kt from the West
Temperature 14°C
Humidity 88%
Pressure 1008 hPa

METAR: EGDM 302150Z AUTO 28009KT //// // BKN045/// SCT090/// 14/12 Q1008

Time: 23:48 (22:48 UTC)

Forecast

The report was made 12 hours and 26 minutes ago, at 10:22 UTC
Forecast valid from 30 at 12 UTC to 30 at 18 UTC
Wind 20 kt from the West with gusts up to 30 kt
Visibility 10 km or more
Broken clouds at a height of 3000 ft
Temporary
from 30 at 12 UTC to 30 at 18 UTC
Visibility: 7000 m
Scattered clouds at a height of 2000 ft
light rain showers
Probability 30% :
Temporary
from 30 at 12 UTC to 30 at 16 UTC
Visibility: 4000 m
Scattered clouds at a height of 2000 ft, Cumulonimbus.
rain showers

TAF: EGDM 301022Z 3012/3018 28020G30KT 9999 BKN030 TEMPO 3012/3018 7000 -SHRA SCT020 PROB30 TEMPO 3012/3016 4000 SHRA SCT020CB

Weather observations and forecasts of more than 4000 airports (METAR and TAF reports).

The available stations are represented by yellow and red dots on the map.

Hover mouse over dot to see the name of the station.

Then click to see weather observations and forecasts.

To change the map : click on the green buttons with a black cross to zoom in, on the green button with a dash to zoom out, or on the green arrows for adjacent maps.


METAR-TAF: